Herentals, Belgium
Current Conditions -  °F | °C
As of 1:45 PM on Tuesday 21 Oct 2014 (Local Time) from EBDT Reporting Station
Rain Showers Rain Showers  
Wind Chill: 13°   Ceiling: 2000
Heat Index: 13°   Visibility: 2.8mi
Dew Point: 11°   Wind: 15mph
Humidity: 88%   Direction: 210°SSW
Pressure: 29.56"   Gusts: 28mph
Location:  51.18°N, 4.83°E
Report Text: EBDT 211145Z 21013G24KT 4500 SHRA FEW014 BKN020 13/11 Q1001 GRN
Loading
Personal Weather Stations






























Interactive Weather Map
Tropical Storm Tracking
New forecast layout! Learn more

10-Day Weather Forecast

Advertisements
Track Severe Weather on mobile